LFRG/DOL METAR and TAF weather

Enter ICAO airport designator
Station Type Date Time Source
LFRG METAR 2019/02/21 15:30 UTC NOAA

LFRG 211530Z AUTO 17004KT 130V210 CAVOK 12/07 Q1029 NOSIG


Station Type Date Time Source
LFRG Decoded METAR 2019/02/21 15:30 UTC NOAA

Station name not available
Feb 21, 2019 - 10:30 AM EST / 2019.02.21 1530 UTC
Wind: from the S (170 degrees) at 5 MPH (4 KT) (direction variable):0
Visibility: greater than 7 mile(s):0
Temperature: 53 F (12 C)
Dew Point: 44 F (7 C)
Relative Humidity: 71%
Pressure (altimeter): 30.39 in. Hg (1029 hPa)
ob: LFRG 211530Z AUTO 17004KT 130V210 CAVOK 12/07 Q1029 NOSIG
cycle: 15

Station Type Date Time Source
LFRG TAF 2014/12/22 18:42 UTC NOAA

TAF
AMD TAF
AMD LFRG 221837Z 2218/2221 25015KT 9999 OVC015
TEMPO 2218/2221 BKN007 PROB30
TEMPO 2218/2221 25015G25KT 4000 DZ BKN003


Example: see airport list